sensor_id;sensor_type;location;lat;lon;timestamp;P1;durP1;ratioP1;P2;durP2;ratioP2
59052;SDS011;44843;44.728;10.396;2023-07-24T00:00:49;22.38;;;11.30;;
59052;SDS011;44843;44.728;10.396;2023-07-24T00:03:14;24.30;;;11.75;;
59052;SDS011;44843;44.728;10.396;2023-07-24T00:05:40;24.23;;;11.82;;
59052;SDS011;44843;44.728;10.396;2023-07-24T00:08:05;24.80;;;12.27;;
59052;SDS011;44843;44.728;10.396;2023-07-24T00:10:31;26.48;;;12.00;;
59052;SDS011;44843;44.728;10.396;2023-07-24T00:12:57;22.23;;;10.85;;
59052;SDS011;44843;44.728;10.396;2023-07-24T00:15:22;26.65;;;11.52;;
59052;SDS011;44843;44.728;10.396;2023-07-24T00:17:48;24.70;;;11.70;;
59052;SDS011;44843;44.728;10.396;2023-07-24T00:20:13;25.35;;;12.55;;
59052;SDS011;44843;44.728;10.396;2023-07-24T00:22:39;21.85;;;11.40;;
59052;SDS011;44843;44.728;10.396;2023-07-24T00:25:04;25.42;;;11.38;;
59052;SDS011;44843;44.728;10.396;2023-07-24T00:27:31;22.90;;;10.48;;
59052;SDS011;44843;44.728;10.396;2023-07-24T00:29:57;23.15;;;11.65;;
59052;SDS011;44843;44.728;10.396;2023-07-24T00:32:22;21.60;;;10.43;;
59052;SDS011;44843;44.728;10.396;2023-07-24T00:34:48;22.75;;;10.52;;
59052;SDS011;44843;44.728;10.396;2023-07-24T00:37:13;24.60;;;11.07;;
59052;SDS011;44843;44.728;10.396;2023-07-24T00:39:39;20.50;;;10.45;;
59052;SDS011;44843;44.728;10.396;2023-07-24T00:42:04;25.45;;;11.90;;
59052;SDS011;44843;44.728;10.396;2023-07-24T00:44:30;21.75;;;10.70;;
59052;SDS011;44843;44.728;10.396;2023-07-24T00:46:55;24.02;;;11.55;;
59052;SDS011;44843;44.728;10.396;2023-07-24T00:49:20;32.33;;;12.40;;
59052;SDS011;44843;44.728;10.396;2023-07-24T00:51:46;24.88;;;11.15;;
59052;SDS011;44843;44.728;10.396;2023-07-24T00:54:12;24.30;;;11.75;;
59052;SDS011;44843;44.728;10.396;2023-07-24T00:56:41;25.10;;;10.40;;
59052;SDS011;44843;44.728;10.396;2023-07-24T00:59:08;25.10;;;11.52;;
59052;SDS011;44843;44.728;10.396;2023-07-24T01:01:34;23.38;;;11.05;;
59052;SDS011;44843;44.728;10.396;2023-07-24T01:04:01;24.50;;;11.38;;
59052;SDS011;44843;44.728;10.396;2023-07-24T01:06:28;23.50;;;11.80;;
59052;SDS011;44843;44.728;10.396;2023-07-24T01:08:54;27.00;;;11.48;;
59052;SDS011;44843;44.728;10.396;2023-07-24T01:11:20;22.15;;;11.55;;
59052;SDS011;44843;44.728;10.396;2023-07-24T01:13:59;24.38;;;11.00;;
59052;SDS011;44843;44.728;10.396;2023-07-24T01:16:40;21.83;;;10.88;;
59052;SDS011;44843;44.728;10.396;2023-07-24T01:19:27;23.10;;;11.23;;
59052;SDS011;44843;44.728;10.396;2023-07-24T01:27:40;26.83;;;12.60;;
59052;SDS011;44843;44.728;10.396;2023-07-24T01:30:09;23.30;;;12.00;;
59052;SDS011;44843;44.728;10.396;2023-07-24T01:32:36;24.27;;;11.70;;
59052;SDS011;44843;44.728;10.396;2023-07-24T01:35:02;25.65;;;12.23;;
59052;SDS011;44843;44.728;10.396;2023-07-24T01:37:28;26.00;;;10.75;;
59052;SDS011;44843;44.728;10.396;2023-07-24T01:39:54;24.08;;;11.32;;
59052;SDS011;44843;44.728;10.396;2023-07-24T01:42:21;23.25;;;10.52;;
59052;SDS011;44843;44.728;10.396;2023-07-24T01:44:53;23.80;;;11.95;;
59052;SDS011;44843;44.728;10.396;2023-07-24T01:47:19;24.43;;;11.80;;
59052;SDS011;44843;44.728;10.396;2023-07-24T01:49:45;22.20;;;10.75;;
59052;SDS011;44843;44.728;10.396;2023-07-24T01:52:11;21.35;;;11.38;;
59052;SDS011;44843;44.728;10.396;2023-07-24T01:54:36;25.20;;;11.68;;
59052;SDS011;44843;44.728;10.396;2023-07-24T01:57:01;26.00;;;11.10;;
59052;SDS011;44843;44.728;10.396;2023-07-24T01:59:27;22.45;;;11.43;;
59052;SDS011;44843;44.728;10.396;2023-07-24T02:01:52;25.67;;;12.60;;
59052;SDS011;44843;44.728;10.396;2023-07-24T02:04:18;23.15;;;10.90;;
59052;SDS011;44843;44.728;10.396;2023-07-24T02:06:47;27.77;;;12.00;;
59052;SDS011;44843;44.728;10.396;2023-07-24T02:09:13;23.98;;;10.85;;
59052;SDS011;44843;44.728;10.396;2023-07-24T02:11:38;26.48;;;12.48;;
59052;SDS011;44843;44.728;10.396;2023-07-24T02:14:04;25.50;;;11.43;;
59052;SDS011;44843;44.728;10.396;2023-07-24T02:16:29;25.85;;;12.02;;
59052;SDS011;44843;44.728;10.396;2023-07-24T02:18:54;31.00;;;12.20;;
59052;SDS011;44843;44.728;10.396;2023-07-24T02:21:20;24.55;;;12.32;;
59052;SDS011;44843;44.728;10.396;2023-07-24T02:23:45;24.67;;;12.10;;
59052;SDS011;44843;44.728;10.396;2023-07-24T02:26:10;26.23;;;12.20;;
59052;SDS011;44843;44.728;10.396;2023-07-24T02:28:36;23.35;;;11.85;;
59052;SDS011;44843;44.728;10.396;2023-07-24T02:31:01;26.13;;;12.70;;
59052;SDS011;44843;44.728;10.396;2023-07-24T02:33:26;27.27;;;12.30;;
59052;SDS011;44843;44.728;10.396;2023-07-24T02:35:52;25.80;;;12.15;;
59052;SDS011;44843;44.728;10.396;2023-07-24T02:38:18;25.90;;;11.75;;
59052;SDS011;44843;44.728;10.396;2023-07-24T02:40:43;26.75;;;12.27;;
59052;SDS011;44843;44.728;10.396;2023-07-24T02:43:09;22.02;;;11.43;;
59052;SDS011;44843;44.728;10.396;2023-07-24T02:45:39;24.50;;;11.80;;
59052;SDS011;44843;44.728;10.396;2023-07-24T02:48:04;21.58;;;11.38;;
59052;SDS011;44843;44.728;10.396;2023-07-24T02:50:30;26.42;;;11.63;;
59052;SDS011;44843;44.728;10.396;2023-07-24T02:52:55;25.75;;;12.07;;
59052;SDS011;44843;44.728;10.396;2023-07-24T02:55:21;26.05;;;12.30;;
59052;SDS011;44843;44.728;10.396;2023-07-24T02:57:46;24.23;;;12.07;;
59052;SDS011;44843;44.728;10.396;2023-07-24T03:00:12;25.98;;;12.27;;
59052;SDS011;44843;44.728;10.396;2023-07-24T03:02:38;23.73;;;11.75;;
59052;SDS011;44843;44.728;10.396;2023-07-24T03:05:04;24.00;;;11.23;;
59052;SDS011;44843;44.728;10.396;2023-07-24T03:07:30;23.33;;;10.60;;
59052;SDS011;44843;44.728;10.396;2023-07-24T03:09:56;27.67;;;12.20;;
59052;SDS011;44843;44.728;10.396;2023-07-24T03:12:21;23.80;;;10.75;;
59052;SDS011;44843;44.728;10.396;2023-07-24T03:14:47;23.27;;;11.50;;
59052;SDS011;44843;44.728;10.396;2023-07-24T03:17:12;25.52;;;12.63;;
59052;SDS011;44843;44.728;10.396;2023-07-24T03:19:38;26.50;;;11.00;;
59052;SDS011;44843;44.728;10.396;2023-07-24T03:22:03;26.98;;;13.15;;
59052;SDS011;44843;44.728;10.396;2023-07-24T03:24:29;23.90;;;10.85;;
59052;SDS011;44843;44.728;10.396;2023-07-24T03:26:54;23.73;;;10.73;;
59052;SDS011;44843;44.728;10.396;2023-07-24T03:29:20;25.08;;;12.00;;
59052;SDS011;44843;44.728;10.396;2023-07-24T03:31:45;27.08;;;11.73;;
59052;SDS011;44843;44.728;10.396;2023-07-24T03:34:10;25.73;;;12.60;;
59052;SDS011;44843;44.728;10.396;2023-07-24T03:36:36;25.90;;;11.73;;
59052;SDS011;44843;44.728;10.396;2023-07-24T03:39:01;27.13;;;12.50;;
59052;SDS011;44843;44.728;10.396;2023-07-24T03:41:27;24.20;;;12.10;;
59052;SDS011;44843;44.728;10.396;2023-07-24T03:43:53;30.23;;;13.02;;
59052;SDS011;44843;44.728;10.396;2023-07-24T03:46:18;26.25;;;12.30;;
59052;SDS011;44843;44.728;10.396;2023-07-24T03:48:43;25.85;;;12.20;;
59052;SDS011;44843;44.728;10.396;2023-07-24T03:51:09;25.17;;;12.32;;
59052;SDS011;44843;44.728;10.396;2023-07-24T03:53:34;25.17;;;11.50;;
59052;SDS011;44843;44.728;10.396;2023-07-24T03:55:59;26.38;;;12.38;;
59052;SDS011;44843;44.728;10.396;2023-07-24T03:58:25;26.42;;;12.55;;
59052;SDS011;44843;44.728;10.396;2023-07-24T04:00:50;29.20;;;12.88;;
59052;SDS011;44843;44.728;10.396;2023-07-24T04:03:16;30.48;;;14.55;;
59052;SDS011;44843;44.728;10.396;2023-07-24T04:05:41;30.52;;;13.63;;
59052;SDS011;44843;44.728;10.396;2023-07-24T04:08:06;28.38;;;13.65;;
59052;SDS011;44843;44.728;10.396;2023-07-24T04:10:32;23.55;;;11.55;;
59052;SDS011;44843;44.728;10.396;2023-07-24T04:12:57;24.23;;;12.57;;
59052;SDS011;44843;44.728;10.396;2023-07-24T04:15:23;23.63;;;11.68;;
59052;SDS011;44843;44.728;10.396;2023-07-24T04:17:48;24.58;;;11.88;;
59052;SDS011;44843;44.728;10.396;2023-07-24T04:20:14;24.23;;;11.95;;
59052;SDS011;44843;44.728;10.396;2023-07-24T04:22:39;28.17;;;12.80;;
59052;SDS011;44843;44.728;10.396;2023-07-24T04:25:05;24.48;;;12.45;;
59052;SDS011;44843;44.728;10.396;2023-07-24T04:27:30;25.08;;;12.40;;
59052;SDS011;44843;44.728;10.396;2023-07-24T04:29:56;25.50;;;12.48;;
59052;SDS011;44843;44.728;10.396;2023-07-24T04:32:21;25.70;;;12.77;;
59052;SDS011;44843;44.728;10.396;2023-07-24T04:34:46;25.75;;;12.15;;
59052;SDS011;44843;44.728;10.396;2023-07-24T04:37:12;24.05;;;11.63;;
59052;SDS011;44843;44.728;10.396;2023-07-24T04:39:40;21.38;;;11.27;;
59052;SDS011;44843;44.728;10.396;2023-07-24T04:42:06;23.73;;;12.30;;
59052;SDS011;44843;44.728;10.396;2023-07-24T04:44:31;23.25;;;11.68;;
59052;SDS011;44843;44.728;10.396;2023-07-24T04:46:57;23.45;;;11.98;;
59052;SDS011;44843;44.728;10.396;2023-07-24T04:49:23;25.08;;;12.55;;
59052;SDS011;44843;44.728;10.396;2023-07-24T04:51:49;25.13;;;12.02;;
59052;SDS011;44843;44.728;10.396;2023-07-24T04:54:15;26.50;;;11.65;;
59052;SDS011;44843;44.728;10.396;2023-07-24T04:56:40;26.52;;;12.75;;
59052;SDS011;44843;44.728;10.396;2023-07-24T04:59:06;24.98;;;12.45;;
59052;SDS011;44843;44.728;10.396;2023-07-24T05:01:31;24.73;;;12.25;;
59052;SDS011;44843;44.728;10.396;2023-07-24T05:03:56;25.35;;;11.63;;
59052;SDS011;44843;44.728;10.396;2023-07-24T05:06:22;23.83;;;11.68;;
59052;SDS011;44843;44.728;10.396;2023-07-24T05:08:48;26.98;;;12.55;;
59052;SDS011;44843;44.728;10.396;2023-07-24T05:11:13;25.88;;;12.38;;
59052;SDS011;44843;44.728;10.396;2023-07-24T05:13:39;23.83;;;11.07;;
59052;SDS011;44843;44.728;10.396;2023-07-24T05:16:04;24.50;;;11.35;;
59052;SDS011;44843;44.728;10.396;2023-07-24T05:18:30;23.30;;;10.55;;
59052;SDS011;44843;44.728;10.396;2023-07-24T05:20:55;21.42;;;11.40;;
59052;SDS011;44843;44.728;10.396;2023-07-24T05:23:20;22.73;;;11.18;;
59052;SDS011;44843;44.728;10.396;2023-07-24T05:25:46;24.20;;;11.48;;
59052;SDS011;44843;44.728;10.396;2023-07-24T05:28:12;24.85;;;11.73;;
59052;SDS011;44843;44.728;10.396;2023-07-24T05:30:37;20.42;;;10.82;;
59052;SDS011;44843;44.728;10.396;2023-07-24T05:33:02;22.27;;;11.80;;
59052;SDS011;44843;44.728;10.396;2023-07-24T05:35:28;26.08;;;10.80;;
59052;SDS011;44843;44.728;10.396;2023-07-24T05:37:53;21.95;;;10.52;;
59052;SDS011;44843;44.728;10.396;2023-07-24T05:40:19;24.80;;;10.60;;
59052;SDS011;44843;44.728;10.396;2023-07-24T05:42:44;23.42;;;11.20;;
59052;SDS011;44843;44.728;10.396;2023-07-24T05:45:11;24.35;;;10.73;;
59052;SDS011;44843;44.728;10.396;2023-07-24T05:47:36;21.60;;;11.07;;
59052;SDS011;44843;44.728;10.396;2023-07-24T05:50:02;24.35;;;11.60;;
59052;SDS011;44843;44.728;10.396;2023-07-24T05:52:28;20.50;;;9.95;;
59052;SDS011;44843;44.728;10.396;2023-07-24T05:54:53;24.95;;;10.32;;
59052;SDS011;44843;44.728;10.396;2023-07-24T05:57:19;23.00;;;10.93;;
59052;SDS011;44843;44.728;10.396;2023-07-24T05:59:44;23.60;;;10.20;;
59052;SDS011;44843;44.728;10.396;2023-07-24T06:02:10;20.92;;;11.00;;
59052;SDS011;44843;44.728;10.396;2023-07-24T06:04:36;20.38;;;10.20;;
59052;SDS011;44843;44.728;10.396;2023-07-24T06:07:01;21.40;;;10.60;;
59052;SDS011;44843;44.728;10.396;2023-07-24T06:09:27;21.50;;;10.63;;
59052;SDS011;44843;44.728;10.396;2023-07-24T06:11:52;24.63;;;10.85;;
59052;SDS011;44843;44.728;10.396;2023-07-24T06:14:17;27.27;;;11.35;;
59052;SDS011;44843;44.728;10.396;2023-07-24T06:16:43;22.95;;;10.38;;
59052;SDS011;44843;44.728;10.396;2023-07-24T06:19:08;32.30;;;11.32;;
59052;SDS011;44843;44.728;10.396;2023-07-24T06:21:33;27.42;;;12.30;;
59052;SDS011;44843;44.728;10.396;2023-07-24T06:23:59;23.15;;;10.77;;
59052;SDS011;44843;44.728;10.396;2023-07-24T06:26:24;27.08;;;12.32;;
59052;SDS011;44843;44.728;10.396;2023-07-24T06:28:49;29.95;;;12.35;;
59052;SDS011;44843;44.728;10.396;2023-07-24T06:31:15;23.20;;;10.88;;
59052;SDS011;44843;44.728;10.396;2023-07-24T06:33:40;27.70;;;11.60;;
59052;SDS011;44843;44.728;10.396;2023-07-24T06:36:08;24.35;;;11.23;;
59052;SDS011;44843;44.728;10.396;2023-07-24T06:38:35;24.40;;;11.63;;
59052;SDS011;44843;44.728;10.396;2023-07-24T06:41:00;22.35;;;11.70;;
59052;SDS011;44843;44.728;10.396;2023-07-24T06:43:26;26.90;;;12.07;;
59052;SDS011;44843;44.728;10.396;2023-07-24T06:45:52;29.67;;;12.55;;
59052;SDS011;44843;44.728;10.396;2023-07-24T06:48:18;24.08;;;11.90;;
59052;SDS011;44843;44.728;10.396;2023-07-24T06:50:43;24.75;;;12.27;;
59052;SDS011;44843;44.728;10.396;2023-07-24T06:53:09;25.08;;;11.68;;
59052;SDS011;44843;44.728;10.396;2023-07-24T06:55:34;26.33;;;11.70;;
59052;SDS011;44843;44.728;10.396;2023-07-24T06:57:59;26.35;;;12.02;;
59052;SDS011;44843;44.728;10.396;2023-07-24T07:00:25;23.35;;;11.48;;
59052;SDS011;44843;44.728;10.396;2023-07-24T07:02:50;23.83;;;11.60;;
59052;SDS011;44843;44.728;10.396;2023-07-24T07:05:15;26.25;;;12.25;;
59052;SDS011;44843;44.728;10.396;2023-07-24T07:07:41;26.65;;;12.23;;
59052;SDS011;44843;44.728;10.396;2023-07-24T07:10:06;23.38;;;11.88;;
59052;SDS011;44843;44.728;10.396;2023-07-24T07:12:32;22.23;;;12.18;;
59052;SDS011;44843;44.728;10.396;2023-07-24T07:14:58;26.73;;;12.90;;
59052;SDS011;44843;44.728;10.396;2023-07-24T07:17:23;22.48;;;11.18;;
59052;SDS011;44843;44.728;10.396;2023-07-24T07:19:48;25.40;;;12.35;;
59052;SDS011;44843;44.728;10.396;2023-07-24T07:22:14;22.95;;;11.30;;
59052;SDS011;44843;44.728;10.396;2023-07-24T07:24:39;27.65;;;12.10;;
59052;SDS011;44843;44.728;10.396;2023-07-24T07:27:05;23.10;;;11.75;;
59052;SDS011;44843;44.728;10.396;2023-07-24T07:29:30;23.23;;;11.60;;
59052;SDS011;44843;44.728;10.396;2023-07-24T07:31:56;28.02;;;11.38;;
59052;SDS011;44843;44.728;10.396;2023-07-24T07:34:22;25.50;;;12.00;;
59052;SDS011;44843;44.728;10.396;2023-07-24T07:36:47;26.80;;;12.68;;
59052;SDS011;44843;44.728;10.396;2023-07-24T07:39:12;28.13;;;12.82;;
59052;SDS011;44843;44.728;10.396;2023-07-24T07:41:38;27.10;;;12.45;;
59052;SDS011;44843;44.728;10.396;2023-07-24T07:44:04;25.98;;;12.35;;
59052;SDS011;44843;44.728;10.396;2023-07-24T07:46:29;25.40;;;12.80;;
59052;SDS011;44843;44.728;10.396;2023-07-24T07:48:54;27.42;;;13.35;;
59052;SDS011;44843;44.728;10.396;2023-07-24T07:51:20;28.98;;;14.57;;
59052;SDS011;44843;44.728;10.396;2023-07-24T07:53:45;22.38;;;12.93;;
59052;SDS011;44843;44.728;10.396;2023-07-24T07:56:11;27.50;;;13.43;;
59052;SDS011;44843;44.728;10.396;2023-07-24T07:58:36;26.98;;;13.73;;
59052;SDS011;44843;44.728;10.396;2023-07-24T08:01:05;25.33;;;12.88;;
59052;SDS011;44843;44.728;10.396;2023-07-24T08:03:30;27.35;;;14.07;;
59052;SDS011;44843;44.728;10.396;2023-07-24T08:05:56;26.08;;;14.38;;
59052;SDS011;44843;44.728;10.396;2023-07-24T08:08:23;30.85;;;15.30;;
59052;SDS011;44843;44.728;10.396;2023-07-24T08:10:48;27.15;;;14.95;;
59052;SDS011;44843;44.728;10.396;2023-07-24T08:13:13;24.27;;;13.50;;
59052;SDS011;44843;44.728;10.396;2023-07-24T08:15:39;29.38;;;14.55;;
59052;SDS011;44843;44.728;10.396;2023-07-24T08:18:04;24.58;;;13.32;;
59052;SDS011;44843;44.728;10.396;2023-07-24T08:20:30;30.98;;;15.00;;
59052;SDS011;44843;44.728;10.396;2023-07-24T08:22:56;28.73;;;16.13;;
59052;SDS011;44843;44.728;10.396;2023-07-24T08:25:21;29.30;;;14.35;;
59052;SDS011;44843;44.728;10.396;2023-07-24T08:27:47;28.92;;;14.52;;
59052;SDS011;44843;44.728;10.396;2023-07-24T08:30:12;26.55;;;15.05;;
59052;SDS011;44843;44.728;10.396;2023-07-24T08:32:38;24.38;;;14.95;;
59052;SDS011;44843;44.728;10.396;2023-07-24T08:35:04;30.08;;;15.38;;
59052;SDS011;44843;44.728;10.396;2023-07-24T08:37:30;25.20;;;14.40;;
59052;SDS011;44843;44.728;10.396;2023-07-24T08:39:55;29.20;;;15.15;;
59052;SDS011;44843;44.728;10.396;2023-07-24T08:42:21;27.23;;;16.40;;
59052;SDS011;44843;44.728;10.396;2023-07-24T08:44:47;30.45;;;15.85;;
59052;SDS011;44843;44.728;10.396;2023-07-24T08:47:13;28.80;;;15.93;;
59052;SDS011;44843;44.728;10.396;2023-07-24T08:49:40;25.92;;;16.08;;
59052;SDS011;44843;44.728;10.396;2023-07-24T08:52:08;27.65;;;16.20;;
59052;SDS011;44843;44.728;10.396;2023-07-24T08:54:37;26.90;;;14.82;;
59052;SDS011;44843;44.728;10.396;2023-07-24T08:57:04;25.95;;;15.10;;
59052;SDS011;44843;44.728;10.396;2023-07-24T08:59:33;25.42;;;15.10;;
59052;SDS011;44843;44.728;10.396;2023-07-24T09:01:59;28.63;;;16.88;;
59052;SDS011;44843;44.728;10.396;2023-07-24T09:04:25;29.85;;;16.48;;
59052;SDS011;44843;44.728;10.396;2023-07-24T09:06:50;28.85;;;15.90;;
59052;SDS011;44843;44.728;10.396;2023-07-24T09:09:16;31.52;;;15.57;;
59052;SDS011;44843;44.728;10.396;2023-07-24T09:11:51;37.72;;;17.98;;
59052;SDS011;44843;44.728;10.396;2023-07-24T09:14:24;31.15;;;16.50;;
59052;SDS011;44843;44.728;10.396;2023-07-24T09:17:02;32.92;;;15.45;;
59052;SDS011;44843;44.728;10.396;2023-07-24T09:19:28;26.90;;;15.18;;
59052;SDS011;44843;44.728;10.396;2023-07-24T09:21:54;25.27;;;14.20;;
59052;SDS011;44843;44.728;10.396;2023-07-24T09:24:19;28.60;;;14.57;;
59052;SDS011;44843;44.728;10.396;2023-07-24T09:26:51;28.10;;;13.98;;
59052;SDS011;44843;44.728;10.396;2023-07-24T09:29:17;29.08;;;14.70;;
59052;SDS011;44843;44.728;10.396;2023-07-24T09:31:44;27.05;;;13.90;;
59052;SDS011;44843;44.728;10.396;2023-07-24T09:34:14;29.20;;;15.23;;
59052;SDS011;44843;44.728;10.396;2023-07-24T09:36:40;25.92;;;14.27;;
59052;SDS011;44843;44.728;10.396;2023-07-24T09:39:06;28.17;;;15.45;;
59052;SDS011;44843;44.728;10.396;2023-07-24T09:41:35;28.40;;;15.27;;
59052;SDS011;44843;44.728;10.396;2023-07-24T09:44:01;31.00;;;15.35;;
59052;SDS011;44843;44.728;10.396;2023-07-24T09:46:26;31.92;;;15.10;;
59052;SDS011;44843;44.728;10.396;2023-07-24T09:48:53;31.27;;;16.77;;
59052;SDS011;44843;44.728;10.396;2023-07-24T09:51:20;34.47;;;16.50;;
59052;SDS011;44843;44.728;10.396;2023-07-24T09:54:06;33.28;;;17.20;;
59052;SDS011;44843;44.728;10.396;2023-07-24T09:56:39;29.45;;;16.38;;
59052;SDS011;44843;44.728;10.396;2023-07-24T09:59:06;31.00;;;16.15;;
59052;SDS011;44843;44.728;10.396;2023-07-24T10:01:33;28.20;;;15.40;;
59052;SDS011;44843;44.728;10.396;2023-07-24T10:03:59;28.13;;;15.00;;
59052;SDS011;44843;44.728;10.396;2023-07-24T10:06:26;30.58;;;15.45;;
59052;SDS011;44843;44.728;10.396;2023-07-24T10:08:54;29.20;;;14.85;;
59052;SDS011;44843;44.728;10.396;2023-07-24T10:11:20;28.40;;;14.73;;
59052;SDS011;44843;44.728;10.396;2023-07-24T10:13:45;34.15;;;17.80;;
59052;SDS011;44843;44.728;10.396;2023-07-24T10:16:11;29.85;;;15.88;;
59052;SDS011;44843;44.728;10.396;2023-07-24T10:18:44;27.13;;;15.93;;
59052;SDS011;44843;44.728;10.396;2023-07-24T10:21:10;29.67;;;16.17;;
59052;SDS011;44843;44.728;10.396;2023-07-24T10:23:43;30.40;;;16.25;;
59052;SDS011;44843;44.728;10.396;2023-07-24T10:26:11;27.02;;;16.13;;
59052;SDS011;44843;44.728;10.396;2023-07-24T10:28:37;32.38;;;16.33;;
59052;SDS011;44843;44.728;10.396;2023-07-24T10:31:05;32.58;;;18.70;;
59052;SDS011;44843;44.728;10.396;2023-07-24T10:33:34;33.75;;;16.73;;
59052;SDS011;44843;44.728;10.396;2023-07-24T10:36:06;29.40;;;16.98;;
59052;SDS011;44843;44.728;10.396;2023-07-24T10:38:38;33.08;;;19.17;;
59052;SDS011;44843;44.728;10.396;2023-07-24T10:41:06;30.17;;;18.10;;
59052;SDS011;44843;44.728;10.396;2023-07-24T10:43:51;27.23;;;16.95;;
59052;SDS011;44843;44.728;10.396;2023-07-24T10:46:18;30.75;;;18.50;;
59052;SDS011;44843;44.728;10.396;2023-07-24T10:48:46;32.92;;;18.83;;
59052;SDS011;44843;44.728;10.396;2023-07-24T10:51:16;33.67;;;17.73;;
59052;SDS011;44843;44.728;10.396;2023-07-24T10:53:46;35.20;;;19.77;;
59052;SDS011;44843;44.728;10.396;2023-07-24T10:56:13;34.03;;;18.33;;
59052;SDS011;44843;44.728;10.396;2023-07-24T10:58:39;29.98;;;18.25;;
59052;SDS011;44843;44.728;10.396;2023-07-24T11:01:05;34.63;;;20.15;;
59052;SDS011;44843;44.728;10.396;2023-07-24T11:03:31;30.73;;;19.33;;
59052;SDS011;44843;44.728;10.396;2023-07-24T11:05:56;31.15;;;17.67;;
59052;SDS011;44843;44.728;10.396;2023-07-24T11:08:23;32.13;;;18.85;;
59052;SDS011;44843;44.728;10.396;2023-07-24T11:10:49;29.83;;;18.13;;
59052;SDS011;44843;44.728;10.396;2023-07-24T11:13:16;26.83;;;15.52;;
59052;SDS011;44843;44.728;10.396;2023-07-24T11:15:42;26.10;;;15.75;;
59052;SDS011;44843;44.728;10.396;2023-07-24T11:18:08;28.98;;;17.20;;
59052;SDS011;44843;44.728;10.396;2023-07-24T11:20:53;26.25;;;16.17;;
59052;SDS011;44843;44.728;10.396;2023-07-24T11:23:20;30.58;;;16.17;;
59052;SDS011;44843;44.728;10.396;2023-07-24T11:25:46;24.75;;;13.82;;
59052;SDS011;44843;44.728;10.396;2023-07-24T11:28:14;27.63;;;15.77;;
59052;SDS011;44843;44.728;10.396;2023-07-24T11:30:40;27.27;;;16.83;;
59052;SDS011;44843;44.728;10.396;2023-07-24T11:33:07;21.20;;;13.15;;
59052;SDS011;44843;44.728;10.396;2023-07-24T11:35:34;24.55;;;12.38;;
59052;SDS011;44843;44.728;10.396;2023-07-24T11:38:00;23.58;;;14.82;;
59052;SDS011;44843;44.728;10.396;2023-07-24T11:40:32;27.02;;;14.93;;
59052;SDS011;44843;44.728;10.396;2023-07-24T11:43:01;23.95;;;13.95;;
59052;SDS011;44843;44.728;10.396;2023-07-24T11:45:27;21.60;;;13.48;;
59052;SDS011;44843;44.728;10.396;2023-07-24T11:47:54;23.80;;;11.93;;
59052;SDS011;44843;44.728;10.396;2023-07-24T11:50:21;24.75;;;13.40;;
59052;SDS011;44843;44.728;10.396;2023-07-24T11:52:48;18.58;;;11.80;;
59052;SDS011;44843;44.728;10.396;2023-07-24T11:55:16;27.13;;;14.55;;
59052;SDS011;44843;44.728;10.396;2023-07-24T11:57:43;22.92;;;13.02;;
59052;SDS011;44843;44.728;10.396;2023-07-24T12:00:18;23.73;;;11.85;;
59052;SDS011;44843;44.728;10.396;2023-07-24T12:02:45;26.70;;;15.68;;
59052;SDS011;44843;44.728;10.396;2023-07-24T12:05:10;27.63;;;16.00;;
59052;SDS011;44843;44.728;10.396;2023-07-24T12:07:35;22.00;;;13.20;;
59052;SDS011;44843;44.728;10.396;2023-07-24T12:10:05;21.70;;;13.93;;
59052;SDS011;44843;44.728;10.396;2023-07-24T12:12:42;22.27;;;12.95;;
59052;SDS011;44843;44.728;10.396;2023-07-24T12:15:08;22.80;;;13.02;;
59052;SDS011;44843;44.728;10.396;2023-07-24T12:17:35;23.50;;;13.48;;
59052;SDS011;44843;44.728;10.396;2023-07-24T12:20:00;20.63;;;12.02;;
59052;SDS011;44843;44.728;10.396;2023-07-24T12:22:27;24.80;;;13.60;;
59052;SDS011;44843;44.728;10.396;2023-07-24T12:24:52;20.45;;;12.25;;
59052;SDS011;44843;44.728;10.396;2023-07-24T12:27:18;21.25;;;13.80;;
59052;SDS011;44843;44.728;10.396;2023-07-24T12:29:43;20.13;;;13.27;;
59052;SDS011;44843;44.728;10.396;2023-07-24T12:32:08;17.55;;;10.45;;
59052;SDS011;44843;44.728;10.396;2023-07-24T12:34:34;19.45;;;10.50;;
59052;SDS011;44843;44.728;10.396;2023-07-24T12:36:59;27.73;;;13.73;;
59052;SDS011;44843;44.728;10.396;2023-07-24T12:39:24;28.27;;;13.75;;
59052;SDS011;44843;44.728;10.396;2023-07-24T12:41:50;25.45;;;13.35;;
59052;SDS011;44843;44.728;10.396;2023-07-24T12:44:15;21.00;;;11.70;;
59052;SDS011;44843;44.728;10.396;2023-07-24T12:46:41;21.75;;;11.77;;
59052;SDS011;44843;44.728;10.396;2023-07-24T12:49:06;22.70;;;13.00;;
59052;SDS011;44843;44.728;10.396;2023-07-24T12:51:31;22.00;;;12.13;;
59052;SDS011;44843;44.728;10.396;2023-07-24T12:53:57;33.50;;;15.02;;
59052;SDS011;44843;44.728;10.396;2023-07-24T12:56:22;26.02;;;13.90;;
59052;SDS011;44843;44.728;10.396;2023-07-24T12:58:48;27.23;;;15.93;;
59052;SDS011;44843;44.728;10.396;2023-07-24T13:01:13;22.63;;;13.50;;
59052;SDS011;44843;44.728;10.396;2023-07-24T13:03:39;25.75;;;14.50;;
59052;SDS011;44843;44.728;10.396;2023-07-24T13:06:04;25.23;;;13.32;;
59052;SDS011;44843;44.728;10.396;2023-07-24T13:08:29;23.83;;;13.70;;
59052;SDS011;44843;44.728;10.396;2023-07-24T13:10:55;25.48;;;15.52;;
59052;SDS011;44843;44.728;10.396;2023-07-24T13:13:20;22.42;;;13.80;;
59052;SDS011;44843;44.728;10.396;2023-07-24T13:15:46;20.17;;;12.20;;
59052;SDS011;44843;44.728;10.396;2023-07-24T13:18:11;20.67;;;11.13;;
59052;SDS011;44843;44.728;10.396;2023-07-24T13:20:39;21.35;;;11.85;;
59052;SDS011;44843;44.728;10.396;2023-07-24T13:23:05;21.30;;;12.07;;
59052;SDS011;44843;44.728;10.396;2023-07-24T13:25:30;17.35;;;10.75;;
59052;SDS011;44843;44.728;10.396;2023-07-24T13:27:56;18.40;;;11.82;;
59052;SDS011;44843;44.728;10.396;2023-07-24T13:30:21;19.42;;;12.15;;
59052;SDS011;44843;44.728;10.396;2023-07-24T13:32:46;23.13;;;11.00;;
59052;SDS011;44843;44.728;10.396;2023-07-24T13:35:12;23.65;;;12.02;;
59052;SDS011;44843;44.728;10.396;2023-07-24T13:37:37;22.23;;;12.60;;
59052;SDS011;44843;44.728;10.396;2023-07-24T13:40:03;25.58;;;12.30;;
59052;SDS011;44843;44.728;10.396;2023-07-24T13:42:28;21.20;;;11.88;;
59052;SDS011;44843;44.728;10.396;2023-07-24T13:44:53;24.80;;;12.98;;
59052;SDS011;44843;44.728;10.396;2023-07-24T13:47:19;21.55;;;11.65;;
59052;SDS011;44843;44.728;10.396;2023-07-24T13:49:46;19.98;;;11.43;;
59052;SDS011;44843;44.728;10.396;2023-07-24T13:52:11;20.77;;;11.52;;
59052;SDS011;44843;44.728;10.396;2023-07-24T13:54:36;21.38;;;11.93;;
59052;SDS011;44843;44.728;10.396;2023-07-24T13:57:02;18.83;;;10.77;;
59052;SDS011;44843;44.728;10.396;2023-07-24T13:59:27;19.17;;;11.00;;
59052;SDS011;44843;44.728;10.396;2023-07-24T14:01:53;20.10;;;11.90;;
59052;SDS011;44843;44.728;10.396;2023-07-24T14:04:18;17.23;;;10.30;;
59052;SDS011;44843;44.728;10.396;2023-07-24T14:06:43;20.38;;;11.30;;
59052;SDS011;44843;44.728;10.396;2023-07-24T14:09:09;16.48;;;9.60;;